Vizconde de Eza — EAXB — position and weather

sailwx.info

Track history (hours):
 
Tides and Currents Weather Stations Pressure Air Temp Water Temp Dewpoint Dewpoint Depression Visibility Wind Speed Wind Dir Waves Ship Positions

Oceanographic research ship Vizconde de Eza (Spain)

Detailed information on ship capabilities available from University of Delaware's Ocean Information Center.

Last reported at 2017-Jul-19 22:47 UTC. Time now 2017-Aug-18 02:51 UTC.
Position N 47°37' W 052°06'.
Warning: this ship's position is 29 days out of date.

Length 53 m; draft 6.2 m.

Type: Other ship. MMSI: 224582000.

Date/timePositionNaut miles runAvg speedWind from/ knotsBaromVisibWave heightAir tempDewpointWater temp
2017-Jul-19 22:47N 47°37' W 052°06'2 6.1
2017-Jul-19 22:25N 47°37' W 052°09'2 4.3
2017-Jul-19 21:56N 47°36' W 052°12'3 6.0
2017-Jul-19 21:25N 47°36' W 052°17'2 4.2
2017-Jul-19 21:00N 47°36' W 052°19'2 3.1
2017-Jul-19 20:29N 47°35' W 052°22'3 5.4
2017-Jul-19 19:58N 47°35' W 052°26'2 3.7
2017-Jul-19 19:27N 47°35' W 052°28'3 6.1
2017-Jul-19 18:57N 47°34' W 052°33'3 6.2
2017-Jul-19 18:27N 47°34' W 052°38'2 5.4
2017-Jul-19 18:00N 47°34' W 052°41'1 1.3
2017-Jul-19 17:25N 47°34' W 052°42'0 0.0
2017-Jul-19 16:58N 47°34' W 052°42'0 0.0
2017-Jul-19 16:28N 47°34' W 052°42'0 0.0
2017-Jul-19 15:46N 47°34' W 052°42'0 0.0
2017-Jul-19 15:28N 47°34' W 052°42'0 0.0
2017-Jul-19 14:58N 47°34' W 052°42'0 0.0
2017-Jul-19 14:28N 47°34' W 052°42'0 0.0
2017-Jul-19 13:55N 47°34' W 052°42'0 0.0
2017-Jul-19 13:28N 47°34' W 052°42'0 0.0
2017-Jul-19 12:43N 47°34' W 052°42'0 0.0
2017-Jul-19 12:28N 47°34' W 052°42'0 0.0
2017-Jul-19 11:55N 47°34' W 052°42'0 0.0
2017-Jul-19 11:28N 47°34' W 052°42'0 0.0
2017-Jul-19 10:58N 47°34' W 052°42'0 0.0
2017-Jul-19 10:28N 47°34' W 052°42'0 0.0
2017-Jul-19 09:55N 47°34' W 052°42'0 0.0
2017-Jul-19 09:22N 47°34' W 052°42'0 0.0
2017-Jul-19 08:52N 47°34' W 052°42'0 0.0
2017-Jul-19 08:28N 47°34' W 052°42'0 0.0
2017-Jul-19 07:58N 47°34' W 052°42'0 0.0
2017-Jul-19 07:22N 47°34' W 052°42'0 0.0
2017-Jul-19 06:58N 47°34' W 052°42'0 0.0
2017-Jul-19 06:28N 47°34' W 052°42'0 0.0
2017-Jul-19 05:58N 47°34' W 052°42'0 0.0
2017-Jul-19 05:28N 47°34' W 052°42'0 0.0
2017-Jul-19 04:58N 47°34' W 052°42'0 0.0
2017-Jul-19 04:28N 47°34' W 052°42'0 0.0
2017-Jul-19 03:58N 47°34' W 052°42'0 0.0
2017-Jul-19 03:28N 47°34' W 052°42'0 0.0
2017-Jul-19 02:58N 47°34' W 052°42'0 0.0
2017-Jul-19 02:25N 47°34' W 052°42'0 0.0
2017-Jul-19 01:58N 47°34' W 052°42'0 0.0
2017-Jul-19 01:28N 47°34' W 052°42'0 0.0
2017-Jul-19 00:58N 47°34' W 052°42'0 0.0
2017-Jul-19 00:22N 47°34' W 052°42'0 0.0
2017-Jul-18 23:55N 47°34' W 052°42'0 0.0
2017-Jul-18 23:25N 47°34' W 052°42'0 0.0
2017-Jul-18 22:58N 47°34' W 052°42'0 0.0
2017-Jul-18 22:28N 47°34' W 052°42'0 0.0
2017-Jul-18 21:58N 47°34' W 052°42'0 0.0
2017-Jul-18 21:28N 47°34' W 052°42'0 0.0
2017-Jul-18 20:58N 47°34' W 052°42'0 0.0
2017-Jul-18 20:28N 47°34' W 052°42'0 0.0
2017-Jul-18 19:52N 47°34' W 052°42'0 0.0
2017-Jul-18 19:28N 47°34' W 052°42'0 0.0
2017-Jul-18 18:58N 47°34' W 052°42'0 0.0
2017-Jul-18 18:28N 47°34' W 052°42'0 0.0
2017-Jul-18 17:58N 47°34' W 052°42'0 0.0
2017-Jul-18 17:28N 47°34' W 052°42'0 0.0
2017-Jul-18 16:58N 47°34' W 052°42'0 0.0
2017-Jul-18 16:28N 47°34' W 052°42'0 0.0
2017-Jul-18 15:58N 47°34' W 052°42'0 0.0
2017-Jul-18 15:25N 47°34' W 052°42'0 0.0
2017-Jul-18 14:58N 47°34' W 052°42'0 0.0
2017-Jul-18 13:58N 47°34' W 052°42'0 0.0
2017-Jul-18 13:28N 47°34' W 052°42'0 0.0
2017-Jul-18 12:58N 47°34' W 052°42'0 0.0
2017-Jul-18 12:28N 47°34' W 052°42'0 0.0
2017-Jul-18 11:58N 47°34' W 052°42'0 0.0
2017-Jul-18 11:28N 47°34' W 052°42'0 0.0
2017-Jul-18 10:55N 47°34' W 052°42'0 0.0
2017-Jul-18 10:25N 47°34' W 052°42'0 0.0
2017-Jul-18 09:58N 47°34' W 052°42'0 0.0
2017-Jul-18 09:28N 47°34' W 052°42'0 0.0
2017-Jul-18 08:58N 47°34' W 052°42'0 0.0
2017-Jul-18 08:28N 47°34' W 052°42'0 0.0
2017-Jul-18 07:58N 47°34' W 052°42'0 0.0
2017-Jul-18 07:28N 47°34' W 052°42'0 0.0
2017-Jul-18 06:58N 47°34' W 052°42'0 0.0
2017-Jul-18 06:25N 47°34' W 052°42'0 0.0
2017-Jul-18 05:55N 47°34' W 052°42'0 0.0
2017-Jul-18 05:28N 47°34' W 052°42'0 0.0
2017-Jul-18 04:52N 47°34' W 052°42'0 0.0
2017-Jul-18 04:22N 47°34' W 052°42'0 0.0
2017-Jul-18 03:58N 47°34' W 052°42'0 0.0
2017-Jul-18 03:25N 47°34' W 052°42'0 0.0
2017-Jul-18 02:58N 47°34' W 052°42'0 0.0
2017-Jul-18 02:28N 47°34' W 052°42'0 0.0
2017-Jul-18 01:55N 47°34' W 052°42'0 0.0
2017-Jul-18 01:25N 47°34' W 052°42'0 0.0
2017-Jul-18 00:58N 47°34' W 052°42'0 0.0
2017-Jul-18 00:25N 47°34' W 052°42'0 0.0
2017-Jul-17 23:58N 47°34' W 052°42'0 0.0
2017-Jul-17 23:28N 47°34' W 052°42'0 0.0
2017-Jul-17 22:58N 47°34' W 052°42'0 0.0
2017-Jul-17 22:28N 47°34' W 052°42'0 0.0
2017-Jul-17 21:55N 47°34' W 052°42'0 0.0
2017-Jul-17 21:28N 47°34' W 052°42'0 0.0
2017-Jul-17 20:58N 47°34' W 052°42'0 0.0
2017-Jul-17 20:28N 47°34' W 052°42'0 0.0
2017-Jul-17 19:58N 47°34' W 052°42'0 0.0
2017-Jul-17 19:28N 47°34' W 052°42'0 0.0
2017-Jul-17 18:58N 47°34' W 052°42'0 0.0
2017-Jul-17 18:28N 47°34' W 052°42'0 0.0
2017-Jul-17 17:58N 47°34' W 052°42'0 0.0
2017-Jul-17 17:25N 47°34' W 052°42'0 0.0
2017-Jul-17 16:58N 47°34' W 052°42'0 0.0
2017-Jul-17 16:28N 47°34' W 052°42'0 0.0
2017-Jul-17 15:55N 47°34' W 052°42'0 0.0
2017-Jul-17 15:22N 47°34' W 052°42'0 0.0
2017-Jul-17 14:58N 47°34' W 052°42'0 0.0
2017-Jul-17 14:22N 47°34' W 052°42'0 0.0
2017-Jul-17 13:58N 47°34' W 052°42'0 0.0
2017-Jul-17 13:19N 47°34' W 052°42'0 0.0
2017-Jul-17 12:55N 47°34' W 052°42'0 0.0
2017-Jul-17 12:28N 47°34' W 052°42'0 0.0
2017-Jul-17 11:58N 47°34' W 052°42'0 0.0
2017-Jul-17 11:28N 47°34' W 052°42'0 0.0
2017-Jul-17 10:52N 47°34' W 052°42'0 0.0
2017-Jul-17 10:28N 47°34' W 052°42'0 0.0
2017-Jul-17 09:58N 47°34' W 052°42'0 0.0
2017-Jul-17 09:25N 47°34' W 052°42'0 0.0
2017-Jul-17 08:58N 47°34' W 052°42'0 0.0
2017-Jul-17 08:26N 47°34' W 052°42'0 0.0
2017-Jul-17 08:00N 47°34' W 052°42'0 0.0
2017-Jul-17 07:29N 47°34' W 052°42'0 0.0
2017-Jul-17 06:59N 47°34' W 052°42'0 0.0
2017-Jul-17 06:28N 47°34' W 052°42'0 0.0
2017-Jul-17 05:57N 47°34' W 052°42'0 0.0
2017-Jul-17 05:27N 47°34' W 052°42'0 0.0
2017-Jul-17 04:56N 47°34' W 052°42'0 0.0
2017-Jul-17 04:30N 47°34' W 052°42'0 0.0
2017-Jul-17 04:00N 47°34' W 052°42'0 0.0
2017-Jul-17 03:30N 47°34' W 052°42'0 0.0
2017-Jul-17 02:59N 47°34' W 052°42'0 0.0
2017-Jul-17 02:29N 47°34' W 052°42'0 0.0
2017-Jul-17 01:59N 47°34' W 052°42'0 0.0
2017-Jul-17 01:28N 47°34' W 052°42'0 0.0
2017-Jul-17 00:58N 47°34' W 052°42'0 0.0
2017-Jul-17 00:27N 47°34' W 052°42'0 0.0
2017-Jul-16 23:57N 47°34' W 052°42'0 0.0
2017-Jul-16 23:16N 47°34' W 052°42'0 0.0
2017-Jul-16 22:56N 47°34' W 052°42'0 0.0
2017-Jul-16 22:30N 47°34' W 052°42'0 0.0
2017-Jul-16 21:59N 47°34' W 052°42'0 0.0
2017-Jul-16 21:29N 47°34' W 052°42'0 0.0
2017-Jul-16 20:58N 47°34' W 052°42'0 0.0
2017-Jul-16 20:27N 47°34' W 052°42'0 0.0
2017-Jul-16 19:57N 47°34' W 052°42'0 0.0
2017-Jul-16 19:27N 47°34' W 052°42'0 0.0
2017-Jul-16 18:56N 47°34' W 052°42'0 0.0
2017-Jul-16 18:26N 47°34' W 052°42'0 0.0
2017-Jul-16 17:56N 47°34' W 052°42'0 0.0
2017-Jul-16 17:30N 47°34' W 052°42'0 0.0
2017-Jul-16 16:59N 47°34' W 052°42'0 0.0
2017-Jul-16 16:28N 47°34' W 052°42'0 0.0
2017-Jul-16 15:58N 47°34' W 052°42'0 0.0
2017-Jul-16 15:28N 47°34' W 052°42'0 0.0
2017-Jul-16 14:57N 47°34' W 052°42'2 3.1
2017-Jul-16 14:25N 47°34' W 052°40'3 6.3
2017-Jul-16 13:59N 47°34' W 052°36'4 7.6
2017-Jul-16 13:29N 47°33' W 052°30'3 6.7
2017-Jul-16 12:59N 47°33' W 052°25'4 7.1
2017-Jul-16 12:28N 47°33' W 052°20'4 7.7
2017-Jul-16 11:59N 47°33' W 052°14'6 8.5
2017-Jul-16 11:14N 47°33' W 052°05'3 9.6
2017-Jul-16 10:56N 47°34' W 052°00'  
Track history (hours):
 
Tides and Currents Weather Stations Pressure Air Temp Water Temp Dewpoint Dewpoint Depression Visibility Wind Speed Wind Dir Waves Ship Positions

Oceanographic research ship Vizconde de Eza (Spain)

Detailed information on ship capabilities available from University of Delaware's Ocean Information Center.

Last reported at 2017-Jul-19 22:47 UTC. Time now 2017-Aug-18 02:51 UTC.
Position N 47°37' W 052°06'.
Warning: this ship's position is 29 days out of date.

Length 53 m; draft 6.2 m.

Type: Other ship. MMSI: 224582000.

Date/timePositionNaut miles runAvg speedWind from/ knotsBaromVisibWave heightAir tempDewpointWater temp
2017-Jul-19 22:47N 47°37' W 052°06'2 6.1
2017-Jul-19 22:25N 47°37' W 052°09'2 4.3
2017-Jul-19 21:56N 47°36' W 052°12'3 6.0
2017-Jul-19 21:25N 47°36' W 052°17'2 4.2
2017-Jul-19 21:00N 47°36' W 052°19'2 3.1
2017-Jul-19 20:29N 47°35' W 052°22'3 5.4
2017-Jul-19 19:58N 47°35' W 052°26'2 3.7
2017-Jul-19 19:27N 47°35' W 052°28'3 6.1
2017-Jul-19 18:57N 47°34' W 052°33'3 6.2
2017-Jul-19 18:27N 47°34' W 052°38'2 5.4
2017-Jul-19 18:00N 47°34' W 052°41'1 1.3
2017-Jul-19 17:25N 47°34' W 052°42'0 0.0
2017-Jul-19 16:58N 47°34' W 052°42'0 0.0
2017-Jul-19 16:28N 47°34' W 052°42'0 0.0
2017-Jul-19 15:46N 47°34' W 052°42'0 0.0
2017-Jul-19 15:28N 47°34' W 052°42'0 0.0
2017-Jul-19 14:58N 47°34' W 052°42'0 0.0
2017-Jul-19 14:28N 47°34' W 052°42'0 0.0
2017-Jul-19 13:55N 47°34' W 052°42'0 0.0
2017-Jul-19 13:28N 47°34' W 052°42'0 0.0
2017-Jul-19 12:43N 47°34' W 052°42'0 0.0
2017-Jul-19 12:28N 47°34' W 052°42'0 0.0
2017-Jul-19 11:55N 47°34' W 052°42'0 0.0
2017-Jul-19 11:28N 47°34' W 052°42'0 0.0
2017-Jul-19 10:58N 47°34' W 052°42'0 0.0
2017-Jul-19 10:28N 47°34' W 052°42'0 0.0
2017-Jul-19 09:55N 47°34' W 052°42'0 0.0
2017-Jul-19 09:22N 47°34' W 052°42'0 0.0
2017-Jul-19 08:52N 47°34' W 052°42'0 0.0
2017-Jul-19 08:28N 47°34' W 052°42'0 0.0
2017-Jul-19 07:58N 47°34' W 052°42'0 0.0
2017-Jul-19 07:22N 47°34' W 052°42'0 0.0
2017-Jul-19 06:58N 47°34' W 052°42'0 0.0
2017-Jul-19 06:28N 47°34' W 052°42'0 0.0
2017-Jul-19 05:58N 47°34' W 052°42'0 0.0
2017-Jul-19 05:28N 47°34' W 052°42'0 0.0
2017-Jul-19 04:58N 47°34' W 052°42'0 0.0
2017-Jul-19 04:28N 47°34' W 052°42'0 0.0
2017-Jul-19 03:58N 47°34' W 052°42'0 0.0
2017-Jul-19 03:28N 47°34' W 052°42'0 0.0
2017-Jul-19 02:58N 47°34' W 052°42'0 0.0
2017-Jul-19 02:25N 47°34' W 052°42'0 0.0
2017-Jul-19 01:58N 47°34' W 052°42'0 0.0
2017-Jul-19 01:28N 47°34' W 052°42'0 0.0
2017-Jul-19 00:58N 47°34' W 052°42'0 0.0
2017-Jul-19 00:22N 47°34' W 052°42'0 0.0
2017-Jul-18 23:55N 47°34' W 052°42'0 0.0
2017-Jul-18 23:25N 47°34' W 052°42'0 0.0
2017-Jul-18 22:58N 47°34' W 052°42'0 0.0
2017-Jul-18 22:28N 47°34' W 052°42'0 0.0
2017-Jul-18 21:58N 47°34' W 052°42'0 0.0
2017-Jul-18 21:28N 47°34' W 052°42'0 0.0
2017-Jul-18 20:58N 47°34' W 052°42'0 0.0
2017-Jul-18 20:28N 47°34' W 052°42'0 0.0
2017-Jul-18 19:52N 47°34' W 052°42'0 0.0
2017-Jul-18 19:28N 47°34' W 052°42'0 0.0
2017-Jul-18 18:58N 47°34' W 052°42'0 0.0
2017-Jul-18 18:28N 47°34' W 052°42'0 0.0
2017-Jul-18 17:58N 47°34' W 052°42'0 0.0
2017-Jul-18 17:28N 47°34' W 052°42'0 0.0
2017-Jul-18 16:58N 47°34' W 052°42'0 0.0
2017-Jul-18 16:28N 47°34' W 052°42'0 0.0
2017-Jul-18 15:58N 47°34' W 052°42'0 0.0
2017-Jul-18 15:25N 47°34' W 052°42'0 0.0
2017-Jul-18 14:58N 47°34' W 052°42'0 0.0
2017-Jul-18 13:58N 47°34' W 052°42'0 0.0
2017-Jul-18 13:28N 47°34' W 052°42'0 0.0
2017-Jul-18 12:58N 47°34' W 052°42'0 0.0
2017-Jul-18 12:28N 47°34' W 052°42'0 0.0
2017-Jul-18 11:58N 47°34' W 052°42'0 0.0
2017-Jul-18 11:28N 47°34' W 052°42'0 0.0
2017-Jul-18 10:55N 47°34' W 052°42'0 0.0
2017-Jul-18 10:25N 47°34' W 052°42'0 0.0
2017-Jul-18 09:58N 47°34' W 052°42'0 0.0
2017-Jul-18 09:28N 47°34' W 052°42'0 0.0
2017-Jul-18 08:58N 47°34' W 052°42'0 0.0
2017-Jul-18 08:28N 47°34' W 052°42'0 0.0
2017-Jul-18 07:58N 47°34' W 052°42'0 0.0
2017-Jul-18 07:28N 47°34' W 052°42'0 0.0
2017-Jul-18 06:58N 47°34' W 052°42'0 0.0
2017-Jul-18 06:25N 47°34' W 052°42'0 0.0
2017-Jul-18 05:55N 47°34' W 052°42'0 0.0
2017-Jul-18 05:28N 47°34' W 052°42'0 0.0
2017-Jul-18 04:52N 47°34' W 052°42'0 0.0
2017-Jul-18 04:22N 47°34' W 052°42'0 0.0
2017-Jul-18 03:58N 47°34' W 052°42'0 0.0
2017-Jul-18 03:25N 47°34' W 052°42'0 0.0
2017-Jul-18 02:58N 47°34' W 052°42'0 0.0
2017-Jul-18 02:28N 47°34' W 052°42'0 0.0
2017-Jul-18 01:55N 47°34' W 052°42'0 0.0
2017-Jul-18 01:25N 47°34' W 052°42'0 0.0
2017-Jul-18 00:58N 47°34' W 052°42'0 0.0
2017-Jul-18 00:25N 47°34' W 052°42'0 0.0
2017-Jul-17 23:58N 47°34' W 052°42'0 0.0
2017-Jul-17 23:28N 47°34' W 052°42'0 0.0
2017-Jul-17 22:58N 47°34' W 052°42'0 0.0
2017-Jul-17 22:28N 47°34' W 052°42'0 0.0
2017-Jul-17 21:55N 47°34' W 052°42'0 0.0
2017-Jul-17 21:28N 47°34' W 052°42'0 0.0
2017-Jul-17 20:58N 47°34' W 052°42'0 0.0
2017-Jul-17 20:28N 47°34' W 052°42'0 0.0
2017-Jul-17 19:58N 47°34' W 052°42'0 0.0
2017-Jul-17 19:28N 47°34' W 052°42'0 0.0
2017-Jul-17 18:58N 47°34' W 052°42'0 0.0
2017-Jul-17 18:28N 47°34' W 052°42'0 0.0
2017-Jul-17 17:58N 47°34' W 052°42'0 0.0
2017-Jul-17 17:25N 47°34' W 052°42'0 0.0
2017-Jul-17 16:58N 47°34' W 052°42'0 0.0
2017-Jul-17 16:28N 47°34' W 052°42'0 0.0
2017-Jul-17 15:55N 47°34' W 052°42'0 0.0
2017-Jul-17 15:22N 47°34' W 052°42'0 0.0
2017-Jul-17 14:58N 47°34' W 052°42'0 0.0
2017-Jul-17 14:22N 47°34' W 052°42'0 0.0
2017-Jul-17 13:58N 47°34' W 052°42'0 0.0
2017-Jul-17 13:19N 47°34' W 052°42'0 0.0
2017-Jul-17 12:55N 47°34' W 052°42'0 0.0
2017-Jul-17 12:28N 47°34' W 052°42'0 0.0
2017-Jul-17 11:58N 47°34' W 052°42'0 0.0
2017-Jul-17 11:28N 47°34' W 052°42'0 0.0
2017-Jul-17 10:52N 47°34' W 052°42'0 0.0
2017-Jul-17 10:28N 47°34' W 052°42'0 0.0
2017-Jul-17 09:58N 47°34' W 052°42'0 0.0
2017-Jul-17 09:25N 47°34' W 052°42'0 0.0
2017-Jul-17 08:58N 47°34' W 052°42'0 0.0
2017-Jul-17 08:26N 47°34' W 052°42'0 0.0
2017-Jul-17 08:00N 47°34' W 052°42'0 0.0
2017-Jul-17 07:29N 47°34' W 052°42'0 0.0
2017-Jul-17 06:59N 47°34' W 052°42'0 0.0
2017-Jul-17 06:28N 47°34' W 052°42'0 0.0
2017-Jul-17 05:57N 47°34' W 052°42'0 0.0
2017-Jul-17 05:27N 47°34' W 052°42'0 0.0
2017-Jul-17 04:56N 47°34' W 052°42'0 0.0
2017-Jul-17 04:30N 47°34' W 052°42'0 0.0
2017-Jul-17 04:00N 47°34' W 052°42'0 0.0
2017-Jul-17 03:30N 47°34' W 052°42'0 0.0
2017-Jul-17 02:59N 47°34' W 052°42'0 0.0
2017-Jul-17 02:29N 47°34' W 052°42'0 0.0
2017-Jul-17 01:59N 47°34' W 052°42'0 0.0
2017-Jul-17 01:28N 47°34' W 052°42'0 0.0
2017-Jul-17 00:58N 47°34' W 052°42'0 0.0
2017-Jul-17 00:27N 47°34' W 052°42'0 0.0
2017-Jul-16 23:57N 47°34' W 052°42'0 0.0
2017-Jul-16 23:16N 47°34' W 052°42'0 0.0
2017-Jul-16 22:56N 47°34' W 052°42'0 0.0
2017-Jul-16 22:30N 47°34' W 052°42'0 0.0
2017-Jul-16 21:59N 47°34' W 052°42'0 0.0
2017-Jul-16 21:29N 47°34' W 052°42'0 0.0
2017-Jul-16 20:58N 47°34' W 052°42'0 0.0
2017-Jul-16 20:27N 47°34' W 052°42'0 0.0
2017-Jul-16 19:57N 47°34' W 052°42'0 0.0
2017-Jul-16 19:27N 47°34' W 052°42'0 0.0
2017-Jul-16 18:56N 47°34' W 052°42'0 0.0
2017-Jul-16 18:26N 47°34' W 052°42'0 0.0
2017-Jul-16 17:56N 47°34' W 052°42'0 0.0
2017-Jul-16 17:30N 47°34' W 052°42'0 0.0
2017-Jul-16 16:59N 47°34' W 052°42'0 0.0
2017-Jul-16 16:28N 47°34' W 052°42'0 0.0
2017-Jul-16 15:58N 47°34' W 052°42'0 0.0
2017-Jul-16 15:28N 47°34' W 052°42'0 0.0
2017-Jul-16 14:57N 47°34' W 052°42'2 3.1
2017-Jul-16 14:25N 47°34' W 052°40'3 6.3
2017-Jul-16 13:59N 47°34' W 052°36'4 7.6
2017-Jul-16 13:29N 47°33' W 052°30'3 6.7
2017-Jul-16 12:59N 47°33' W 052°25'4 7.1
2017-Jul-16 12:28N 47°33' W 052°20'4 7.7
2017-Jul-16 11:59N 47°33' W 052°14'6 8.5
2017-Jul-16 11:14N 47°33' W 052°05'3 9.6
2017-Jul-16 10:56N 47°34' W 052°00'  

Dump ship's entire track history